sensor_id;sensor_type;location;lat;lon;timestamp;P1;durP1;ratioP1;P2;durP2;ratioP2
39522;SDS011;25202;51.216;6.806;2024-02-16T00:00:12;2.72;;;1.70;;
39522;SDS011;25202;51.216;6.806;2024-02-16T00:02:39;2.40;;;1.90;;
39522;SDS011;25202;51.216;6.806;2024-02-16T00:05:06;3.17;;;1.63;;
39522;SDS011;25202;51.216;6.806;2024-02-16T00:07:35;2.63;;;1.75;;
39522;SDS011;25202;51.216;6.806;2024-02-16T00:10:02;6.10;;;1.63;;
39522;SDS011;25202;51.216;6.806;2024-02-16T00:12:30;2.53;;;1.70;;
39522;SDS011;25202;51.216;6.806;2024-02-16T00:14:57;2.45;;;1.65;;
39522;SDS011;25202;51.216;6.806;2024-02-16T00:17:24;3.35;;;1.80;;
39522;SDS011;25202;51.216;6.806;2024-02-16T00:20:00;2.38;;;1.88;;
39522;SDS011;25202;51.216;6.806;2024-02-16T00:22:26;3.95;;;1.70;;
39522;SDS011;25202;51.216;6.806;2024-02-16T00:24:52;2.65;;;1.70;;
39522;SDS011;25202;51.216;6.806;2024-02-16T00:27:17;2.05;;;1.73;;
39522;SDS011;25202;51.216;6.806;2024-02-16T00:29:43;3.30;;;1.88;;
39522;SDS011;25202;51.216;6.806;2024-02-16T00:32:09;3.00;;;1.90;;
39522;SDS011;25202;51.216;6.806;2024-02-16T00:34:35;2.80;;;1.88;;
39522;SDS011;25202;51.216;6.806;2024-02-16T00:37:02;1.50;;;1.38;;
39522;SDS011;25202;51.216;6.806;2024-02-16T00:39:29;2.10;;;1.58;;
39522;SDS011;25202;51.216;6.806;2024-02-16T00:41:54;2.72;;;1.88;;
39522;SDS011;25202;51.216;6.806;2024-02-16T00:44:20;2.25;;;1.92;;
39522;SDS011;25202;51.216;6.806;2024-02-16T00:46:45;2.97;;;1.60;;
39522;SDS011;25202;51.216;6.806;2024-02-16T00:49:11;3.28;;;1.90;;
39522;SDS011;25202;51.216;6.806;2024-02-16T00:51:37;3.50;;;2.05;;
39522;SDS011;25202;51.216;6.806;2024-02-16T00:54:03;2.75;;;1.88;;
39522;SDS011;25202;51.216;6.806;2024-02-16T00:56:29;3.95;;;1.70;;
39522;SDS011;25202;51.216;6.806;2024-02-16T00:58:58;2.45;;;1.83;;
39522;SDS011;25202;51.216;6.806;2024-02-16T01:01:23;2.47;;;1.85;;
39522;SDS011;25202;51.216;6.806;2024-02-16T01:03:51;3.40;;;1.90;;
39522;SDS011;25202;51.216;6.806;2024-02-16T01:06:19;3.05;;;1.88;;
39522;SDS011;25202;51.216;6.806;2024-02-16T01:08:45;2.10;;;1.73;;
39522;SDS011;25202;51.216;6.806;2024-02-16T01:11:11;2.83;;;1.63;;
39522;SDS011;25202;51.216;6.806;2024-02-16T01:13:38;1.95;;;1.58;;
39522;SDS011;25202;51.216;6.806;2024-02-16T01:16:04;2.25;;;1.52;;
39522;SDS011;25202;51.216;6.806;2024-02-16T01:18:30;2.30;;;1.60;;
39522;SDS011;25202;51.216;6.806;2024-02-16T01:20:57;2.95;;;1.60;;
39522;SDS011;25202;51.216;6.806;2024-02-16T01:23:23;2.17;;;1.60;;
39522;SDS011;25202;51.216;6.806;2024-02-16T01:25:49;2.00;;;1.60;;
39522;SDS011;25202;51.216;6.806;2024-02-16T01:28:14;1.67;;;1.40;;
39522;SDS011;25202;51.216;6.806;2024-02-16T01:30:40;1.95;;;1.50;;
39522;SDS011;25202;51.216;6.806;2024-02-16T01:33:06;2.47;;;1.80;;
39522;SDS011;25202;51.216;6.806;2024-02-16T01:35:32;2.50;;;1.67;;
39522;SDS011;25202;51.216;6.806;2024-02-16T01:37:58;2.10;;;1.58;;
39522;SDS011;25202;51.216;6.806;2024-02-16T01:40:23;3.28;;;1.80;;
39522;SDS011;25202;51.216;6.806;2024-02-16T01:42:51;3.30;;;1.83;;
39522;SDS011;25202;51.216;6.806;2024-02-16T01:45:18;2.42;;;1.65;;
39522;SDS011;25202;51.216;6.806;2024-02-16T01:47:43;2.47;;;1.80;;
39522;SDS011;25202;51.216;6.806;2024-02-16T01:50:11;3.00;;;1.50;;
39522;SDS011;25202;51.216;6.806;2024-02-16T01:52:37;3.72;;;1.67;;
39522;SDS011;25202;51.216;6.806;2024-02-16T01:55:03;2.10;;;1.60;;
39522;SDS011;25202;51.216;6.806;2024-02-16T01:57:30;2.35;;;1.58;;
39522;SDS011;25202;51.216;6.806;2024-02-16T01:59:57;2.25;;;1.60;;
39522;SDS011;25202;51.216;6.806;2024-02-16T02:02:24;2.55;;;1.58;;
39522;SDS011;25202;51.216;6.806;2024-02-16T02:04:49;2.22;;;1.77;;
39522;SDS011;25202;51.216;6.806;2024-02-16T02:07:15;3.67;;;1.83;;
39522;SDS011;25202;51.216;6.806;2024-02-16T02:09:41;2.95;;;1.83;;
39522;SDS011;25202;51.216;6.806;2024-02-16T02:12:10;2.38;;;1.70;;
39522;SDS011;25202;51.216;6.806;2024-02-16T02:14:36;2.67;;;1.77;;
39522;SDS011;25202;51.216;6.806;2024-02-16T02:17:04;2.35;;;1.60;;
39522;SDS011;25202;51.216;6.806;2024-02-16T02:19:30;2.33;;;1.63;;
39522;SDS011;25202;51.216;6.806;2024-02-16T02:21:55;1.38;;;1.20;;
39522;SDS011;25202;51.216;6.806;2024-02-16T02:24:21;3.03;;;1.60;;
39522;SDS011;25202;51.216;6.806;2024-02-16T02:26:47;2.08;;;1.63;;
39522;SDS011;25202;51.216;6.806;2024-02-16T02:29:13;2.15;;;1.48;;
39522;SDS011;25202;51.216;6.806;2024-02-16T02:31:38;2.00;;;1.63;;
39522;SDS011;25202;51.216;6.806;2024-02-16T02:34:03;1.42;;;1.30;;
39522;SDS011;25202;51.216;6.806;2024-02-16T02:36:30;1.60;;;1.35;;
39522;SDS011;25202;51.216;6.806;2024-02-16T02:38:58;2.22;;;1.85;;
39522;SDS011;25202;51.216;6.806;2024-02-16T02:41:24;2.00;;;1.60;;
39522;SDS011;25202;51.216;6.806;2024-02-16T02:43:50;2.40;;;1.65;;
39522;SDS011;25202;51.216;6.806;2024-02-16T02:46:16;2.78;;;1.80;;
39522;SDS011;25202;51.216;6.806;2024-02-16T02:48:42;1.80;;;1.40;;
39522;SDS011;25202;51.216;6.806;2024-02-16T02:51:08;1.55;;;1.35;;
39522;SDS011;25202;51.216;6.806;2024-02-16T02:53:34;2.42;;;1.52;;
39522;SDS011;25202;51.216;6.806;2024-02-16T02:56:00;2.70;;;1.83;;
39522;SDS011;25202;51.216;6.806;2024-02-16T02:58:25;3.20;;;1.60;;
39522;SDS011;25202;51.216;6.806;2024-02-16T03:00:51;2.17;;;1.70;;
39522;SDS011;25202;51.216;6.806;2024-02-16T03:03:17;2.40;;;1.50;;
39522;SDS011;25202;51.216;6.806;2024-02-16T03:05:42;4.88;;;1.73;;
39522;SDS011;25202;51.216;6.806;2024-02-16T03:08:08;2.53;;;1.45;;
39522;SDS011;25202;51.216;6.806;2024-02-16T03:10:34;2.10;;;1.55;;
39522;SDS011;25202;51.216;6.806;2024-02-16T03:13:01;2.75;;;1.70;;
39522;SDS011;25202;51.216;6.806;2024-02-16T03:15:28;2.00;;;1.50;;
39522;SDS011;25202;51.216;6.806;2024-02-16T03:17:54;2.17;;;1.67;;
39522;SDS011;25202;51.216;6.806;2024-02-16T03:20:22;1.63;;;1.42;;
39522;SDS011;25202;51.216;6.806;2024-02-16T03:22:48;2.17;;;1.50;;
39522;SDS011;25202;51.216;6.806;2024-02-16T03:25:14;2.78;;;1.70;;
39522;SDS011;25202;51.216;6.806;2024-02-16T03:27:40;1.85;;;1.48;;
39522;SDS011;25202;51.216;6.806;2024-02-16T03:30:07;3.50;;;1.58;;
39522;SDS011;25202;51.216;6.806;2024-02-16T03:32:33;1.92;;;1.50;;
39522;SDS011;25202;51.216;6.806;2024-02-16T03:34:59;1.95;;;1.50;;
39522;SDS011;25202;51.216;6.806;2024-02-16T03:37:25;1.77;;;1.48;;
39522;SDS011;25202;51.216;6.806;2024-02-16T03:39:50;2.17;;;1.67;;
39522;SDS011;25202;51.216;6.806;2024-02-16T03:42:16;2.10;;;1.40;;
39522;SDS011;25202;51.216;6.806;2024-02-16T03:44:44;1.98;;;1.52;;
39522;SDS011;25202;51.216;6.806;2024-02-16T03:47:10;1.70;;;1.50;;
39522;SDS011;25202;51.216;6.806;2024-02-16T03:49:36;2.03;;;1.60;;
39522;SDS011;25202;51.216;6.806;2024-02-16T03:52:02;2.03;;;1.42;;
39522;SDS011;25202;51.216;6.806;2024-02-16T03:54:28;1.80;;;1.50;;
39522;SDS011;25202;51.216;6.806;2024-02-16T03:56:54;1.58;;;1.30;;
39522;SDS011;25202;51.216;6.806;2024-02-16T03:59:20;2.20;;;1.40;;
39522;SDS011;25202;51.216;6.806;2024-02-16T04:01:45;1.88;;;1.40;;
39522;SDS011;25202;51.216;6.806;2024-02-16T04:04:11;4.22;;;1.30;;
39522;SDS011;25202;51.216;6.806;2024-02-16T04:06:37;2.88;;;1.58;;
39522;SDS011;25202;51.216;6.806;2024-02-16T04:09:03;2.47;;;1.80;;
39522;SDS011;25202;51.216;6.806;2024-02-16T04:11:31;2.03;;;1.40;;
39522;SDS011;25202;51.216;6.806;2024-02-16T04:13:57;1.95;;;1.50;;
39522;SDS011;25202;51.216;6.806;2024-02-16T04:16:23;3.20;;;1.70;;
39522;SDS011;25202;51.216;6.806;2024-02-16T04:18:50;4.68;;;1.50;;
39522;SDS011;25202;51.216;6.806;2024-02-16T04:21:16;4.05;;;1.50;;
39522;SDS011;25202;51.216;6.806;2024-02-16T04:23:42;4.07;;;1.83;;
39522;SDS011;25202;51.216;6.806;2024-02-16T04:26:07;3.15;;;1.80;;
39522;SDS011;25202;51.216;6.806;2024-02-16T04:28:34;2.33;;;1.67;;
39522;SDS011;25202;51.216;6.806;2024-02-16T04:31:00;1.70;;;1.48;;
39522;SDS011;25202;51.216;6.806;2024-02-16T04:33:25;1.52;;;1.35;;
39522;SDS011;25202;51.216;6.806;2024-02-16T04:35:51;2.00;;;1.38;;
39522;SDS011;25202;51.216;6.806;2024-02-16T04:38:17;2.47;;;1.50;;
39522;SDS011;25202;51.216;6.806;2024-02-16T04:40:42;4.07;;;1.60;;
39522;SDS011;25202;51.216;6.806;2024-02-16T04:43:08;1.95;;;1.50;;
39522;SDS011;25202;51.216;6.806;2024-02-16T04:45:34;1.52;;;1.30;;
39522;SDS011;25202;51.216;6.806;2024-02-16T04:48:04;2.40;;;1.63;;
39522;SDS011;25202;51.216;6.806;2024-02-16T04:50:31;2.42;;;1.83;;
39522;SDS011;25202;51.216;6.806;2024-02-16T04:52:57;1.42;;;1.10;;
39522;SDS011;25202;51.216;6.806;2024-02-16T04:55:22;2.55;;;1.50;;
39522;SDS011;25202;51.216;6.806;2024-02-16T04:57:48;2.13;;;1.52;;
39522;SDS011;25202;51.216;6.806;2024-02-16T05:00:13;2.42;;;1.70;;
39522;SDS011;25202;51.216;6.806;2024-02-16T05:02:39;1.95;;;1.50;;
39522;SDS011;25202;51.216;6.806;2024-02-16T05:05:05;1.60;;;1.40;;
39522;SDS011;25202;51.216;6.806;2024-02-16T05:07:30;2.45;;;1.65;;
39522;SDS011;25202;51.216;6.806;2024-02-16T05:09:56;2.75;;;1.75;;
39522;SDS011;25202;51.216;6.806;2024-02-16T05:12:23;2.15;;;1.38;;
39522;SDS011;25202;51.216;6.806;2024-02-16T05:14:49;1.70;;;1.40;;
39522;SDS011;25202;51.216;6.806;2024-02-16T05:17:15;1.88;;;1.60;;
39522;SDS011;25202;51.216;6.806;2024-02-16T05:19:41;2.00;;;1.50;;
39522;SDS011;25202;51.216;6.806;2024-02-16T05:22:07;1.60;;;1.30;;
39522;SDS011;25202;51.216;6.806;2024-02-16T05:24:32;1.88;;;1.40;;
39522;SDS011;25202;51.216;6.806;2024-02-16T05:26:58;3.60;;;1.73;;
39522;SDS011;25202;51.216;6.806;2024-02-16T05:29:25;2.28;;;1.55;;
39522;SDS011;25202;51.216;6.806;2024-02-16T05:31:52;3.17;;;1.60;;
39522;SDS011;25202;51.216;6.806;2024-02-16T05:34:17;2.08;;;1.33;;
39522;SDS011;25202;51.216;6.806;2024-02-16T05:36:43;2.33;;;1.52;;
39522;SDS011;25202;51.216;6.806;2024-02-16T05:39:10;1.58;;;1.08;;
39522;SDS011;25202;51.216;6.806;2024-02-16T05:41:48;2.47;;;1.60;;
39522;SDS011;25202;51.216;6.806;2024-02-16T05:44:14;1.60;;;1.25;;
39522;SDS011;25202;51.216;6.806;2024-02-16T05:46:39;1.60;;;1.30;;
39522;SDS011;25202;51.216;6.806;2024-02-16T05:49:05;2.35;;;1.40;;
39522;SDS011;25202;51.216;6.806;2024-02-16T05:51:37;2.20;;;1.48;;
39522;SDS011;25202;51.216;6.806;2024-02-16T05:54:04;2.47;;;1.30;;
39522;SDS011;25202;51.216;6.806;2024-02-16T05:56:30;2.35;;;1.55;;
39522;SDS011;25202;51.216;6.806;2024-02-16T05:58:59;1.77;;;1.45;;
39522;SDS011;25202;51.216;6.806;2024-02-16T06:01:25;2.40;;;1.58;;
39522;SDS011;25202;51.216;6.806;2024-02-16T06:03:51;1.85;;;1.50;;
39522;SDS011;25202;51.216;6.806;2024-02-16T06:06:17;3.05;;;1.38;;
39522;SDS011;25202;51.216;6.806;2024-02-16T06:08:42;1.58;;;1.20;;
39522;SDS011;25202;51.216;6.806;2024-02-16T06:11:08;1.40;;;1.20;;
39522;SDS011;25202;51.216;6.806;2024-02-16T06:13:34;2.05;;;1.38;;
39522;SDS011;25202;51.216;6.806;2024-02-16T06:15:59;1.73;;;1.30;;
39522;SDS011;25202;51.216;6.806;2024-02-16T06:18:25;2.08;;;1.50;;
39522;SDS011;25202;51.216;6.806;2024-02-16T06:20:54;3.25;;;1.50;;
39522;SDS011;25202;51.216;6.806;2024-02-16T06:23:20;1.85;;;1.42;;
39522;SDS011;25202;51.216;6.806;2024-02-16T06:25:46;2.20;;;1.40;;
39522;SDS011;25202;51.216;6.806;2024-02-16T06:28:11;1.77;;;1.23;;
39522;SDS011;25202;51.216;6.806;2024-02-16T06:30:37;1.85;;;1.40;;
39522;SDS011;25202;51.216;6.806;2024-02-16T06:33:02;2.97;;;1.48;;
39522;SDS011;25202;51.216;6.806;2024-02-16T06:35:29;2.10;;;1.60;;
39522;SDS011;25202;51.216;6.806;2024-02-16T06:37:54;1.83;;;1.38;;
39522;SDS011;25202;51.216;6.806;2024-02-16T06:40:20;1.95;;;1.30;;
39522;SDS011;25202;51.216;6.806;2024-02-16T06:42:46;2.20;;;1.45;;
39522;SDS011;25202;51.216;6.806;2024-02-16T06:45:12;2.50;;;1.50;;
39522;SDS011;25202;51.216;6.806;2024-02-16T06:47:37;1.52;;;1.33;;
39522;SDS011;25202;51.216;6.806;2024-02-16T06:50:03;1.70;;;1.30;;
39522;SDS011;25202;51.216;6.806;2024-02-16T06:52:28;2.00;;;1.48;;
39522;SDS011;25202;51.216;6.806;2024-02-16T06:54:54;1.73;;;1.40;;
39522;SDS011;25202;51.216;6.806;2024-02-16T06:57:19;2.50;;;1.38;;
39522;SDS011;25202;51.216;6.806;2024-02-16T06:59:45;2.80;;;1.38;;
39522;SDS011;25202;51.216;6.806;2024-02-16T07:02:11;2.03;;;1.35;;
39522;SDS011;25202;51.216;6.806;2024-02-16T07:04:39;2.45;;;1.50;;
39522;SDS011;25202;51.216;6.806;2024-02-16T07:07:05;1.90;;;1.40;;
39522;SDS011;25202;51.216;6.806;2024-02-16T07:09:31;1.80;;;1.40;;
39522;SDS011;25202;51.216;6.806;2024-02-16T07:11:57;1.52;;;1.42;;
39522;SDS011;25202;51.216;6.806;2024-02-16T07:14:23;2.00;;;1.40;;
39522;SDS011;25202;51.216;6.806;2024-02-16T07:16:49;1.50;;;1.27;;
39522;SDS011;25202;51.216;6.806;2024-02-16T07:19:15;2.80;;;1.23;;
39522;SDS011;25202;51.216;6.806;2024-02-16T07:21:40;2.05;;;1.27;;
39522;SDS011;25202;51.216;6.806;2024-02-16T07:24:06;1.92;;;1.30;;
39522;SDS011;25202;51.216;6.806;2024-02-16T07:26:31;1.45;;;1.13;;
39522;SDS011;25202;51.216;6.806;2024-02-16T07:28:58;1.40;;;1.30;;
39522;SDS011;25202;51.216;6.806;2024-02-16T07:31:24;1.98;;;1.50;;
39522;SDS011;25202;51.216;6.806;2024-02-16T07:33:49;1.63;;;1.23;;
39522;SDS011;25202;51.216;6.806;2024-02-16T07:36:15;1.63;;;1.40;;
39522;SDS011;25202;51.216;6.806;2024-02-16T07:38:43;2.40;;;1.42;;
39522;SDS011;25202;51.216;6.806;2024-02-16T07:41:09;1.92;;;1.30;;
39522;SDS011;25202;51.216;6.806;2024-02-16T07:43:34;2.95;;;1.40;;
39522;SDS011;25202;51.216;6.806;2024-02-16T07:46:00;1.48;;;1.23;;
39522;SDS011;25202;51.216;6.806;2024-02-16T07:48:26;1.33;;;1.20;;
39522;SDS011;25202;51.216;6.806;2024-02-16T07:50:51;2.05;;;1.40;;
39522;SDS011;25202;51.216;6.806;2024-02-16T07:53:17;1.50;;;1.33;;
39522;SDS011;25202;51.216;6.806;2024-02-16T07:55:43;1.75;;;1.58;;
39522;SDS011;25202;51.216;6.806;2024-02-16T07:58:08;3.28;;;1.35;;
39522;SDS011;25202;51.216;6.806;2024-02-16T08:00:34;1.95;;;1.20;;
39522;SDS011;25202;51.216;6.806;2024-02-16T08:03:00;2.60;;;1.30;;
39522;SDS011;25202;51.216;6.806;2024-02-16T08:05:25;2.97;;;1.30;;
39522;SDS011;25202;51.216;6.806;2024-02-16T08:07:52;3.78;;;1.40;;
39522;SDS011;25202;51.216;6.806;2024-02-16T08:10:23;1.70;;;1.30;;
39522;SDS011;25202;51.216;6.806;2024-02-16T08:12:50;2.60;;;1.45;;
39522;SDS011;25202;51.216;6.806;2024-02-16T08:15:16;1.60;;;1.17;;
39522;SDS011;25202;51.216;6.806;2024-02-16T08:17:47;2.42;;;1.30;;
39522;SDS011;25202;51.216;6.806;2024-02-16T08:20:13;3.67;;;1.40;;
39522;SDS011;25202;51.216;6.806;2024-02-16T08:22:39;3.08;;;1.50;;
39522;SDS011;25202;51.216;6.806;2024-02-16T08:25:06;1.83;;;1.40;;
39522;SDS011;25202;51.216;6.806;2024-02-16T08:27:32;3.50;;;1.60;;
39522;SDS011;25202;51.216;6.806;2024-02-16T08:29:57;3.80;;;1.35;;
39522;SDS011;25202;51.216;6.806;2024-02-16T08:32:23;1.95;;;1.35;;
39522;SDS011;25202;51.216;6.806;2024-02-16T08:34:49;2.67;;;1.48;;
39522;SDS011;25202;51.216;6.806;2024-02-16T08:37:15;2.95;;;1.50;;
39522;SDS011;25202;51.216;6.806;2024-02-16T08:39:41;2.70;;;1.40;;
39522;SDS011;25202;51.216;6.806;2024-02-16T08:42:06;2.13;;;1.30;;
39522;SDS011;25202;51.216;6.806;2024-02-16T08:44:34;2.85;;;1.30;;
39522;SDS011;25202;51.216;6.806;2024-02-16T08:47:00;2.15;;;1.38;;
39522;SDS011;25202;51.216;6.806;2024-02-16T08:49:25;2.22;;;1.25;;
39522;SDS011;25202;51.216;6.806;2024-02-16T08:51:51;2.65;;;1.30;;
39522;SDS011;25202;51.216;6.806;2024-02-16T08:54:16;2.95;;;1.70;;
39522;SDS011;25202;51.216;6.806;2024-02-16T08:56:43;2.90;;;1.63;;
39522;SDS011;25202;51.216;6.806;2024-02-16T08:59:10;8.15;;;4.50;;
39522;SDS011;25202;51.216;6.806;2024-02-16T09:01:36;5.18;;;2.67;;
39522;SDS011;25202;51.216;6.806;2024-02-16T09:04:02;2.80;;;1.90;;
39522;SDS011;25202;51.216;6.806;2024-02-16T09:06:28;7.25;;;2.45;;
39522;SDS011;25202;51.216;6.806;2024-02-16T09:08:54;6.10;;;2.00;;
39522;SDS011;25202;51.216;6.806;2024-02-16T09:11:20;4.07;;;2.17;;
39522;SDS011;25202;51.216;6.806;2024-02-16T09:13:45;5.32;;;2.47;;
39522;SDS011;25202;51.216;6.806;2024-02-16T09:16:11;4.40;;;1.80;;
39522;SDS011;25202;51.216;6.806;2024-02-16T09:18:37;4.72;;;1.75;;
39522;SDS011;25202;51.216;6.806;2024-02-16T09:21:03;4.95;;;2.13;;
39522;SDS011;25202;51.216;6.806;2024-02-16T09:23:29;5.03;;;1.77;;
39522;SDS011;25202;51.216;6.806;2024-02-16T09:25:54;4.10;;;2.10;;
39522;SDS011;25202;51.216;6.806;2024-02-16T09:28:20;3.15;;;2.10;;
39522;SDS011;25202;51.216;6.806;2024-02-16T09:30:46;3.65;;;1.92;;
39522;SDS011;25202;51.216;6.806;2024-02-16T09:33:12;5.18;;;2.08;;
39522;SDS011;25202;51.216;6.806;2024-02-16T09:35:39;7.75;;;2.00;;
39522;SDS011;25202;51.216;6.806;2024-02-16T09:38:05;3.22;;;1.83;;
39522;SDS011;25202;51.216;6.806;2024-02-16T09:40:30;6.40;;;1.77;;
39522;SDS011;25202;51.216;6.806;2024-02-16T09:42:56;9.55;;;2.30;;
39522;SDS011;25202;51.216;6.806;2024-02-16T09:45:22;6.53;;;2.17;;
39522;SDS011;25202;51.216;6.806;2024-02-16T09:47:49;4.90;;;1.85;;
39522;SDS011;25202;51.216;6.806;2024-02-16T09:50:15;4.40;;;1.98;;
39522;SDS011;25202;51.216;6.806;2024-02-16T09:52:41;3.30;;;1.90;;
39522;SDS011;25202;51.216;6.806;2024-02-16T09:55:09;4.50;;;1.85;;
39522;SDS011;25202;51.216;6.806;2024-02-16T09:57:37;2.88;;;1.80;;
39522;SDS011;25202;51.216;6.806;2024-02-16T10:00:03;3.20;;;2.00;;
39522;SDS011;25202;51.216;6.806;2024-02-16T10:02:41;3.42;;;2.00;;
39522;SDS011;25202;51.216;6.806;2024-02-16T10:05:16;4.57;;;2.13;;
39522;SDS011;25202;51.216;6.806;2024-02-16T10:07:44;2.92;;;1.98;;
39522;SDS011;25202;51.216;6.806;2024-02-16T10:10:25;5.60;;;2.38;;
39522;SDS011;25202;51.216;6.806;2024-02-16T10:13:00;3.60;;;1.95;;
39522;SDS011;25202;51.216;6.806;2024-02-16T10:15:33;4.22;;;2.15;;
39522;SDS011;25202;51.216;6.806;2024-02-16T10:20:29;2.65;;;2.10;;
39522;SDS011;25202;51.216;6.806;2024-02-16T10:23:05;3.67;;;2.17;;
39522;SDS011;25202;51.216;6.806;2024-02-16T10:25:31;3.92;;;2.03;;
39522;SDS011;25202;51.216;6.806;2024-02-16T10:27:57;5.97;;;2.40;;
39522;SDS011;25202;51.216;6.806;2024-02-16T10:30:27;3.58;;;1.75;;
39522;SDS011;25202;51.216;6.806;2024-02-16T10:32:54;2.50;;;1.60;;
39522;SDS011;25202;51.216;6.806;2024-02-16T10:35:20;3.97;;;2.30;;
39522;SDS011;25202;51.216;6.806;2024-02-16T10:37:46;5.07;;;2.17;;
39522;SDS011;25202;51.216;6.806;2024-02-16T10:40:12;4.18;;;1.83;;
39522;SDS011;25202;51.216;6.806;2024-02-16T10:42:39;2.83;;;1.80;;
39522;SDS011;25202;51.216;6.806;2024-02-16T10:45:06;4.72;;;2.30;;
39522;SDS011;25202;51.216;6.806;2024-02-16T10:47:31;6.68;;;2.13;;
39522;SDS011;25202;51.216;6.806;2024-02-16T10:49:57;3.92;;;2.10;;
39522;SDS011;25202;51.216;6.806;2024-02-16T10:52:23;3.42;;;2.17;;
39522;SDS011;25202;51.216;6.806;2024-02-16T10:54:50;2.65;;;1.88;;
39522;SDS011;25202;51.216;6.806;2024-02-16T10:57:16;4.93;;;1.90;;
39522;SDS011;25202;51.216;6.806;2024-02-16T10:59:42;3.90;;;2.03;;
39522;SDS011;25202;51.216;6.806;2024-02-16T11:02:13;3.53;;;2.00;;
39522;SDS011;25202;51.216;6.806;2024-02-16T11:04:39;5.38;;;2.15;;
39522;SDS011;25202;51.216;6.806;2024-02-16T11:07:11;3.38;;;2.15;;
39522;SDS011;25202;51.216;6.806;2024-02-16T11:09:40;4.10;;;2.20;;
39522;SDS011;25202;51.216;6.806;2024-02-16T11:12:06;3.00;;;2.00;;
39522;SDS011;25202;51.216;6.806;2024-02-16T11:14:37;3.55;;;2.13;;
39522;SDS011;25202;51.216;6.806;2024-02-16T11:17:12;3.17;;;2.05;;
39522;SDS011;25202;51.216;6.806;2024-02-16T11:19:42;7.20;;;2.53;;
39522;SDS011;25202;51.216;6.806;2024-02-16T11:22:09;4.13;;;2.25;;
39522;SDS011;25202;51.216;6.806;2024-02-16T11:24:37;7.22;;;3.25;;
39522;SDS011;25202;51.216;6.806;2024-02-16T11:27:08;6.40;;;2.95;;
39522;SDS011;25202;51.216;6.806;2024-02-16T11:29:35;6.78;;;2.30;;
39522;SDS011;25202;51.216;6.806;2024-02-16T11:32:02;3.80;;;2.20;;
39522;SDS011;25202;51.216;6.806;2024-02-16T11:34:28;9.13;;;2.75;;
39522;SDS011;25202;51.216;6.806;2024-02-16T11:36:54;9.88;;;2.78;;
39522;SDS011;25202;51.216;6.806;2024-02-16T11:39:21;5.63;;;2.80;;
39522;SDS011;25202;51.216;6.806;2024-02-16T11:41:47;5.97;;;2.47;;
39522;SDS011;25202;51.216;6.806;2024-02-16T11:44:13;7.32;;;3.28;;
39522;SDS011;25202;51.216;6.806;2024-02-16T11:46:41;8.38;;;2.90;;
39522;SDS011;25202;51.216;6.806;2024-02-16T11:49:07;7.82;;;2.70;;
39522;SDS011;25202;51.216;6.806;2024-02-16T11:51:33;7.18;;;2.85;;
39522;SDS011;25202;51.216;6.806;2024-02-16T11:53:59;5.40;;;2.95;;
39522;SDS011;25202;51.216;6.806;2024-02-16T11:56:24;5.45;;;2.70;;
39522;SDS011;25202;51.216;6.806;2024-02-16T11:58:50;9.02;;;3.33;;
39522;SDS011;25202;51.216;6.806;2024-02-16T12:01:16;6.38;;;3.35;;
39522;SDS011;25202;51.216;6.806;2024-02-16T12:03:41;7.85;;;3.17;;
39522;SDS011;25202;51.216;6.806;2024-02-16T12:06:07;7.10;;;3.25;;
39522;SDS011;25202;51.216;6.806;2024-02-16T12:08:34;7.97;;;3.50;;
39522;SDS011;25202;51.216;6.806;2024-02-16T12:11:00;8.30;;;3.10;;
39522;SDS011;25202;51.216;6.806;2024-02-16T12:13:26;19.10;;;3.05;;
39522;SDS011;25202;51.216;6.806;2024-02-16T12:15:52;10.50;;;3.33;;
39522;SDS011;25202;51.216;6.806;2024-02-16T12:18:24;9.45;;;3.22;;
39522;SDS011;25202;51.216;6.806;2024-02-16T12:21:00;6.50;;;3.03;;
39522;SDS011;25202;51.216;6.806;2024-02-16T12:23:26;7.40;;;2.78;;
39522;SDS011;25202;51.216;6.806;2024-02-16T12:25:52;7.05;;;3.33;;
39522;SDS011;25202;51.216;6.806;2024-02-16T12:28:18;10.65;;;2.88;;
39522;SDS011;25202;51.216;6.806;2024-02-16T12:30:46;8.15;;;3.22;;
39522;SDS011;25202;51.216;6.806;2024-02-16T12:33:13;7.53;;;2.92;;
39522;SDS011;25202;51.216;6.806;2024-02-16T12:35:39;8.77;;;2.80;;
39522;SDS011;25202;51.216;6.806;2024-02-16T12:38:05;5.78;;;2.65;;
39522;SDS011;25202;51.216;6.806;2024-02-16T12:40:30;5.25;;;2.88;;
39522;SDS011;25202;51.216;6.806;2024-02-16T12:42:56;6.95;;;2.80;;
39522;SDS011;25202;51.216;6.806;2024-02-16T12:45:22;7.70;;;2.90;;
39522;SDS011;25202;51.216;6.806;2024-02-16T12:47:47;10.10;;;2.95;;
39522;SDS011;25202;51.216;6.806;2024-02-16T12:50:13;5.93;;;2.70;;
39522;SDS011;25202;51.216;6.806;2024-02-16T12:52:38;7.15;;;2.85;;
39522;SDS011;25202;51.216;6.806;2024-02-16T12:55:05;6.63;;;2.55;;
39522;SDS011;25202;51.216;6.806;2024-02-16T12:57:31;6.68;;;2.58;;
39522;SDS011;25202;51.216;6.806;2024-02-16T12:59:57;7.28;;;2.75;;
39522;SDS011;25202;51.216;6.806;2024-02-16T13:02:22;6.35;;;2.30;;
39522;SDS011;25202;51.216;6.806;2024-02-16T13:04:48;4.63;;;2.38;;
39522;SDS011;25202;51.216;6.806;2024-02-16T13:07:13;8.13;;;2.60;;
39522;SDS011;25202;51.216;6.806;2024-02-16T13:09:39;8.48;;;2.30;;
39522;SDS011;25202;51.216;6.806;2024-02-16T13:12:05;4.40;;;2.20;;
39522;SDS011;25202;51.216;6.806;2024-02-16T13:14:31;9.10;;;2.75;;
39522;SDS011;25202;51.216;6.806;2024-02-16T13:16:56;5.63;;;2.50;;
39522;SDS011;25202;51.216;6.806;2024-02-16T13:19:22;4.53;;;2.40;;
39522;SDS011;25202;51.216;6.806;2024-02-16T13:21:49;6.07;;;2.60;;
39522;SDS011;25202;51.216;6.806;2024-02-16T13:24:15;3.67;;;2.33;;
39522;SDS011;25202;51.216;6.806;2024-02-16T13:26:41;4.32;;;2.20;;
39522;SDS011;25202;51.216;6.806;2024-02-16T13:29:06;5.82;;;2.17;;
39522;SDS011;25202;51.216;6.806;2024-02-16T13:31:32;4.63;;;2.17;;
39522;SDS011;25202;51.216;6.806;2024-02-16T13:33:58;5.07;;;2.40;;
39522;SDS011;25202;51.216;6.806;2024-02-16T13:36:24;5.15;;;2.30;;
39522;SDS011;25202;51.216;6.806;2024-02-16T13:38:49;6.97;;;2.30;;
39522;SDS011;25202;51.216;6.806;2024-02-16T13:41:15;5.13;;;2.55;;
39522;SDS011;25202;51.216;6.806;2024-02-16T13:43:41;4.00;;;2.00;;
39522;SDS011;25202;51.216;6.806;2024-02-16T13:46:06;7.45;;;2.40;;
39522;SDS011;25202;51.216;6.806;2024-02-16T13:48:32;4.05;;;2.00;;
39522;SDS011;25202;51.216;6.806;2024-02-16T13:50:58;4.53;;;2.38;;
39522;SDS011;25202;51.216;6.806;2024-02-16T13:53:25;4.05;;;1.92;;
39522;SDS011;25202;51.216;6.806;2024-02-16T13:55:50;4.70;;;2.22;;
39522;SDS011;25202;51.216;6.806;2024-02-16T13:58:16;4.43;;;2.13;;
39522;SDS011;25202;51.216;6.806;2024-02-16T14:00:41;4.30;;;2.15;;
39522;SDS011;25202;51.216;6.806;2024-02-16T14:03:08;4.45;;;2.20;;
39522;SDS011;25202;51.216;6.806;2024-02-16T14:05:38;5.00;;;2.25;;
39522;SDS011;25202;51.216;6.806;2024-02-16T14:08:04;4.22;;;2.28;;
39522;SDS011;25202;51.216;6.806;2024-02-16T14:10:30;4.72;;;2.25;;
39522;SDS011;25202;51.216;6.806;2024-02-16T14:12:57;6.88;;;2.20;;
39522;SDS011;25202;51.216;6.806;2024-02-16T14:15:23;6.50;;;2.35;;
39522;SDS011;25202;51.216;6.806;2024-02-16T14:17:48;5.03;;;2.10;;
39522;SDS011;25202;51.216;6.806;2024-02-16T14:20:14;2.88;;;1.67;;
39522;SDS011;25202;51.216;6.806;2024-02-16T14:22:39;5.10;;;2.35;;
39522;SDS011;25202;51.216;6.806;2024-02-16T14:25:05;7.88;;;2.38;;
39522;SDS011;25202;51.216;6.806;2024-02-16T14:27:31;8.05;;;2.40;;
39522;SDS011;25202;51.216;6.806;2024-02-16T14:29:57;5.82;;;2.05;;
39522;SDS011;25202;51.216;6.806;2024-02-16T14:32:22;5.80;;;2.00;;
39522;SDS011;25202;51.216;6.806;2024-02-16T14:34:48;4.63;;;2.03;;
39522;SDS011;25202;51.216;6.806;2024-02-16T14:37:13;5.38;;;2.10;;
39522;SDS011;25202;51.216;6.806;2024-02-16T14:39:39;2.97;;;1.60;;
39522;SDS011;25202;51.216;6.806;2024-02-16T14:42:04;5.10;;;1.90;;
39522;SDS011;25202;51.216;6.806;2024-02-16T14:44:30;9.77;;;2.63;;